Time;durP1;ratioP1;P1;durP2;ratioP2;P2;SDS_P1;SDS_P2;PMS_P1;PMS_P2;Temp;Humidity;BMP_temperature;BMP_pressure;BME280_temperature;BME280_humidity;BME280_pressure;Samples;Min_cycle;Max_cycle;Signal;HPM_P1;HPM_P2
2021/08/01 00:01:20;;;;;;;18.75;9.07;;;;;;;15.33;88.41;101023.22;5054307;28;20411;-60
2021/08/01 00:03:45;;;;;;;17.13;8.70;;;;;;;15.30;88.46;101021.59;5054083;28;20143;-61
2021/08/01 00:06:10;;;;;;;22.40;8.68;;;;;;;15.25;88.35;101026.38;5053587;28;20037;-60
2021/08/01 00:08:39;;;;;;;18.10;8.35;;;;;;;15.20;88.47;101021.31;5054158;28;20116;-61
2021/08/01 00:11:04;;;;;;;17.27;8.25;;;;;;;15.20;88.53;101028.47;5054621;28;20021;-61
2021/08/01 00:13:29;;;;;;;21.45;8.80;;;;;;;15.16;88.29;101026.94;5054486;28;20027;-61
2021/08/01 00:15:54;;;;;;;19.75;8.05;;;;;;;15.15;88.58;101019.88;5054320;28;20470;-61
2021/08/01 00:18:20;;;;;;;16.55;7.55;;;;;;;15.14;88.52;101019.03;5053870;28;20071;-61
2021/08/01 00:20:45;;;;;;;21.42;8.93;;;;;;;15.10;88.68;101022.81;5054212;28;20385;-61
2021/08/01 00:23:11;;;;;;;14.95;7.88;;;;;;;15.05;88.37;101019.59;5054656;28;20021;-60
2021/08/01 00:25:36;;;;;;;19.75;7.95;;;;;;;15.00;88.60;101011.00;5054152;28;20040;-61
2021/08/01 00:28:01;;;;;;;20.42;7.68;;;;;;;14.98;88.69;101015.59;5053961;28;20027;-60
2021/08/01 00:30:26;;;;;;;17.67;7.65;;;;;;;14.95;88.75;101010.44;5053871;28;20406;-61
2021/08/01 00:32:52;;;;;;;23.08;7.45;;;;;;;14.93;88.76;101009.69;5052923;28;20078;-61
2021/08/01 00:35:17;;;;;;;19.38;7.50;;;;;;;14.91;88.71;101010.63;5053920;28;20391;-68
2021/08/01 00:37:42;;;;;;;18.35;6.88;;;;;;;14.88;88.59;101010.78;5054113;28;20055;-60
2021/08/01 00:40:09;;;;;;;19.58;7.20;;;;;;;14.85;88.64;101013.66;5053797;28;20037;-61
2021/08/01 00:42:35;;;;;;;19.27;7.13;;;;;;;14.82;88.57;101008.53;5054093;28;20021;-61
2021/08/01 00:45:01;;;;;;;18.80;7.20;;;;;;;14.73;89.12;101009.94;5054253;28;20032;-61
2021/08/01 00:47:26;;;;;;;18.40;7.43;;;;;;;14.70;89.13;101007.44;5053656;28;20025;-61
2021/08/01 00:49:51;;;;;;;18.30;7.43;;;;;;;14.70;88.78;101015.41;5053258;28;20060;-61
2021/08/01 00:52:17;;;;;;;16.45;6.78;;;;;;;14.69;88.91;101010.19;5053737;28;20036;-61
2021/08/01 00:54:42;;;;;;;15.82;7.13;;;;;;;14.63;89.48;101005.19;5053706;28;20040;-60
2021/08/01 00:57:07;;;;;;;20.80;8.27;;;;;;;14.63;89.29;101006.06;5054124;28;20080;-61
2021/08/01 00:59:34;;;;;;;17.55;7.75;;;;;;;14.66;89.44;101002.38;5053395;28;20020;-61
2021/08/01 01:02:10;;;;;;;18.23;7.68;;;;;;;14.70;89.18;100998.59;5053194;28;20492;-61
2021/08/01 01:04:58;;;;;;;18.23;7.70;;;;;;;14.73;89.26;101006.38;5053221;28;20120;-61
2021/08/01 01:07:39;;;;;;;15.00;7.60;;;;;;;14.75;89.50;101001.84;5053142;28;20017;-61
2021/08/01 01:10:08;;;;;;;18.20;8.88;;;;;;;14.79;89.30;100992.69;5052721;28;20028;-61
2021/08/01 01:12:45;;;;;;;26.35;9.75;;;;;;;14.84;89.33;100993.28;5051644;28;20036;-61
2021/08/01 01:15:16;;;;;;;23.65;9.25;;;;;;;14.89;89.44;100990.34;5053242;28;20024;-60
2021/08/01 01:17:46;;;;;;;22.02;9.68;;;;;;;14.87;89.43;100987.78;5052786;28;20108;-61
2021/08/01 01:20:43;;;;;;;23.67;9.48;;;;;;;14.87;89.44;100986.91;5053053;28;20075;-61
2021/08/01 01:23:20;;;;;;;23.27;9.25;;;;;;;14.83;89.34;100980.03;5053236;28;20032;-61
2021/08/01 01:26:03;;;;;;;18.38;8.43;;;;;;;14.83;89.63;100996.03;5053205;28;20104;-61
2021/08/01 01:28:45;;;;;;;16.65;8.25;;;;;;;14.83;89.31;100985.38;5053428;28;20044;-61
2021/08/01 01:31:16;;;;;;;16.70;8.48;;;;;;;14.82;89.77;100983.66;5052556;28;20410;-60
2021/08/01 01:34:06;;;;;;;20.65;7.63;;;;;;;14.84;89.61;100981.75;5052509;28;20549;-66
2021/08/01 01:36:33;;;;;;;16.70;7.68;;;;;;;14.84;89.74;100984.44;5053156;28;20025;-61
2021/08/01 01:39:02;;;;;;;18.77;8.52;;;;;;;14.87;90.12;100992.22;5053440;28;20028;-61
2021/08/01 01:41:28;;;;;;;24.73;9.10;;;;;;;14.89;90.09;100985.84;5052326;28;20423;-61
2021/08/01 01:43:54;;;;;;;18.45;7.97;;;;;;;14.93;89.88;100988.34;5052649;28;20028;-61
2021/08/01 01:46:21;;;;;;;23.00;9.20;;;;;;;14.94;89.81;100979.41;5052825;28;20021;-60
2021/08/01 01:48:47;;;;;;;19.13;8.93;;;;;;;14.98;89.96;100975.59;5052698;28;20024;-61
2021/08/01 01:51:13;;;;;;;17.55;8.18;;;;;;;15.02;89.63;100977.13;5052237;28;20028;-61
2021/08/01 01:53:38;;;;;;;21.73;9.18;;;;;;;15.01;89.54;100981.59;5052531;28;20033;-60
2021/08/01 01:56:07;;;;;;;21.05;7.95;;;;;;;15.05;89.43;100976.91;5052896;28;20024;-64
2021/08/01 01:58:34;;;;;;;22.02;9.25;;;;;;;15.04;89.53;100972.56;5052371;28;20470;-68
2021/08/01 02:00:59;;;;;;;19.27;8.50;;;;;;;15.10;89.46;100971.31;5052322;28;20493;-61
2021/08/01 02:03:25;;;;;;;18.48;8.40;;;;;;;15.12;89.49;100967.59;5051940;28;20041;-62
2021/08/01 02:05:50;;;;;;;26.77;9.68;;;;;;;15.13;89.29;100963.97;5052373;28;20104;-68
2021/08/01 02:08:15;;;;;;;17.77;7.28;;;;;;;15.16;89.32;100971.78;5052577;28;20021;-60
2021/08/01 02:10:50;;;;;;;19.42;6.88;;;;;;;15.22;89.11;100968.72;5052276;28;20025;-61
2021/08/01 02:13:18;;;;;;;24.52;7.35;;;;;;;15.25;89.06;100965.00;5051802;28;20116;-61
2021/08/01 02:15:49;;;;;;;14.93;7.03;;;;;;;15.29;89.08;100968.34;5052498;28;20040;-61
2021/08/01 02:18:30;;;;;;;16.05;7.07;;;;;;;15.29;89.13;100968.34;5052075;28;20029;-60
2021/08/01 02:20:56;;;;;;;19.48;8.05;;;;;;;15.29;89.15;100968.34;5052734;28;20029;-61
2021/08/01 02:23:25;;;;;;;23.33;8.30;;;;;;;15.30;89.32;100962.91;5051976;28;20067;-61
2021/08/01 02:25:52;;;;;;;21.23;9.05;;;;;;;15.31;89.54;100964.63;5052283;28;20064;-62
2021/08/01 02:28:20;;;;;;;22.25;9.18;;;;;;;15.30;89.47;100973.59;5052334;28;20075;-69
2021/08/01 02:30:46;;;;;;;22.67;8.63;;;;;;;15.31;89.65;100974.47;5052295;28;20477;-65
2021/08/01 02:33:13;;;;;;;25.92;9.90;;;;;;;15.32;89.59;100961.03;5051273;28;20087;-62
2021/08/01 02:35:39;;;;;;;28.23;10.20;;;;;;;15.32;89.50;100963.69;5050707;28;20036;-62
2021/08/01 02:38:05;;;;;;;29.42;10.05;;;;;;;15.34;89.73;100967.09;5034119;28;20033;-65
2021/08/01 02:40:36;;;;;;;29.77;10.70;;;;;;;15.34;89.24;100969.75;5051782;28;20029;-61
2021/08/01 02:43:05;;;;;;;23.27;10.02;;;;;;;15.37;89.45;100969.59;5051655;28;20037;-64
2021/08/01 02:45:32;;;;;;;18.90;9.07;;;;;;;15.38;89.22;100968.66;5051530;28;20470;-69
2021/08/01 02:48:00;;;;;;;20.65;9.43;;;;;;;15.39;88.75;100967.66;5052207;28;20029;-61
2021/08/01 02:50:26;;;;;;;22.48;10.00;;;;;;;15.39;88.80;100962.31;5051887;28;20320;-62
2021/08/01 02:53:01;;;;;;;22.38;10.25;;;;;;;15.32;88.58;100965.47;5051623;28;20083;-61
2021/08/01 02:55:32;;;;;;;19.92;8.88;;;;;;;15.29;88.43;100961.19;5052216;28;20037;-61
2021/08/01 02:57:58;;;;;;;26.27;10.00;;;;;;;15.24;88.44;100957.97;5055668;28;20033;-61
2021/08/01 03:00:24;;;;;;;20.55;10.18;;;;;;;15.15;88.64;100963.88;5055716;28;20377;-62
2021/08/01 03:02:51;;;;;;;26.40;10.77;;;;;;;15.12;89.10;100953.41;5055708;28;20029;-60
2021/08/01 03:05:17;;;;;;;24.00;10.40;;;;;;;15.10;88.67;100955.31;5055312;28;20483;-61
2021/08/01 03:07:44;;;;;;;24.25;10.77;;;;;;;15.04;89.01;100954.72;5035667;28;20032;-62
2021/08/01 03:10:10;;;;;;;25.73;11.15;;;;;;;15.03;89.24;100944.16;5035580;28;20052;-62
2021/08/01 03:12:50;;;;;;;28.42;11.07;;;;;;;15.01;89.34;100954.94;5035812;28;20483;-63
2021/08/01 03:15:16;;;;;;;24.15;10.57;;;;;;;15.00;89.26;100952.34;5055171;28;20043;-62
2021/08/01 03:17:42;;;;;;;29.17;11.35;;;;;;;14.95;89.48;100957.09;5054975;28;20049;-61
2021/08/01 03:20:09;;;;;;;28.08;11.40;;;;;;;14.88;89.41;100946.81;5055446;28;20446;-61
2021/08/01 03:22:35;;;;;;;22.08;11.35;;;;;;;14.83;89.67;100942.72;5056042;28;20078;-61
2021/08/01 03:25:00;;;;;;;23.42;11.80;;;;;;;14.75;89.88;100946.69;5055158;28;20045;-62
2021/08/01 03:27:26;;;;;;;28.55;11.60;;;;;;;14.72;90.06;100959.38;5055490;28;20032;-62
2021/08/01 03:29:52;;;;;;;32.92;12.85;;;;;;;14.68;90.11;100952.50;5055657;28;20139;-61
2021/08/01 03:32:19;;;;;;;29.13;12.65;;;;;;;14.64;90.17;100956.28;5055886;28;20475;-62
2021/08/01 03:34:44;;;;;;;30.73;11.98;;;;;;;14.67;90.43;100958.81;5055194;28;20386;-61
2021/08/01 03:37:09;;;;;;;27.33;11.35;;;;;;;14.67;90.39;100956.97;5054937;28;20021;-62
2021/08/01 03:39:36;;;;;;;28.63;12.65;;;;;;;14.65;90.80;100961.53;5055317;28;20426;-61
2021/08/01 03:42:02;;;;;;;25.85;10.85;;;;;;;14.65;90.65;100960.69;5055278;28;20404;-62
2021/08/01 03:44:27;;;;;;;27.80;12.00;;;;;;;14.66;90.72;100952.59;5054952;28;20033;-62
2021/08/01 03:46:53;;;;;;;31.23;13.23;;;;;;;14.70;90.88;100964.78;5055337;28;20059;-61
2021/08/01 03:49:18;;;;;;;29.85;12.05;;;;;;;14.73;90.63;100956.63;5054923;28;20033;-62
2021/08/01 03:51:44;;;;;;;31.70;12.50;;;;;;;14.72;90.29;100959.38;5054697;28;20475;-61
2021/08/01 03:54:09;;;;;;;28.17;12.70;;;;;;;14.74;90.27;100957.47;5054897;28;20107;-61
2021/08/01 03:56:43;;;;;;;29.70;12.68;;;;;;;14.71;90.48;100955.00;5054712;28;20102;-62
2021/08/01 03:59:09;;;;;;;31.08;13.95;;;;;;;14.70;90.65;100969.25;5054595;28;20029;-61
2021/08/01 04:01:34;;;;;;;36.47;13.80;;;;;;;14.68;90.75;100966.69;5054910;28;20355;-62
2021/08/01 04:03:59;;;;;;;28.63;14.50;;;;;;;14.73;90.76;100966.41;5055037;28;20068;-61
2021/08/01 04:06:24;;;;;;;33.63;14.85;;;;;;;14.74;90.72;100966.34;5053955;28;20028;-61
2021/08/01 04:08:50;;;;;;;35.17;14.18;;;;;;;14.76;90.74;100966.22;5054630;28;20025;-62
2021/08/01 04:11:15;;;;;;;29.23;14.32;;;;;;;14.76;90.70;100958.25;5055101;28;20029;-61
2021/08/01 04:13:41;;;;;;;33.28;15.30;;;;;;;14.82;90.44;100963.19;5054683;28;20462;-62
2021/08/01 04:16:08;;;;;;;36.15;14.60;;;;;;;14.83;90.52;100969.38;5054415;28;20478;-61
2021/08/01 04:18:33;;;;;;;33.97;14.65;;;;;;;14.82;90.73;100975.66;5054394;28;20025;-61
2021/08/01 04:20:58;;;;;;;27.50;14.10;;;;;;;14.86;90.29;100975.38;5054041;28;20033;-61
2021/08/01 04:23:24;;;;;;;39.25;15.70;;;;;;;14.85;90.47;100964.81;5054443;28;20105;-62
2021/08/01 04:25:49;;;;;;;31.60;13.77;;;;;;;14.84;90.47;100968.44;5054185;28;20783;-62
2021/08/01 04:28:15;;;;;;;26.10;13.32;;;;;;;14.85;90.44;100970.16;5054263;28;20356;-68
2021/08/01 04:30:40;;;;;;;35.15;14.68;;;;;;;14.90;90.30;100968.06;5053892;28;20083;-61
2021/08/01 04:33:05;;;;;;;28.45;13.90;;;;;;;14.97;90.13;100968.53;5054523;28;20459;-61
2021/08/01 04:35:31;;;;;;;36.85;15.30;;;;;;;14.95;89.96;100973.97;5053855;28;20032;-62
2021/08/01 04:37:56;;;;;;;27.42;14.18;;;;;;;14.98;90.02;100971.09;5053688;28;20029;-61
2021/08/01 04:40:22;;;;;;;33.40;14.23;;;;;;;14.99;89.85;100971.97;5053772;28;20021;-62
2021/08/01 04:42:47;;;;;;;27.73;13.38;;;;;;;14.99;89.73;100972.81;5054139;28;20103;-61
2021/08/01 04:45:12;;;;;;;35.85;13.65;;;;;;;14.96;89.72;100977.47;5053979;28;20471;-62
2021/08/01 04:47:38;;;;;;;29.58;14.00;;;;;;;14.95;89.89;100975.75;5053940;28;20032;-62
2021/08/01 04:50:03;;;;;;;31.98;14.60;;;;;;;14.95;89.81;100975.75;5054490;28;20467;-61
2021/08/01 04:52:28;;;;;;;35.60;14.35;;;;;;;14.95;89.76;100978.44;5053330;28;20478;-61
2021/08/01 04:54:54;;;;;;;37.35;14.32;;;;;;;14.95;90.06;100968.63;5053523;28;20033;-62
2021/08/01 04:57:19;;;;;;;32.50;14.05;;;;;;;14.99;90.28;100971.97;5053755;28;20029;-63
2021/08/01 04:59:44;;;;;;;34.53;14.05;;;;;;;15.05;90.34;100975.13;5054029;28;20107;-62
2021/08/01 05:02:10;;;;;;;30.85;14.55;;;;;;;15.08;90.15;100976.75;5053272;28;20028;-61
2021/08/01 05:04:35;;;;;;;35.08;15.05;;;;;;;15.13;90.01;100976.44;5053638;28;20033;-62
2021/08/01 05:07:00;;;;;;;34.50;14.55;;;;;;;15.17;90.02;100980.66;5053867;28;20043;-62
2021/08/01 05:09:26;;;;;;;31.73;14.98;;;;;;;15.25;90.33;100975.69;5053788;28;20063;-61
2021/08/01 05:11:51;;;;;;;34.53;14.32;;;;;;;15.32;90.03;100973.47;5053744;28;20486;-61
2021/08/01 05:14:16;;;;;;;29.33;14.48;;;;;;;15.38;89.50;100975.78;5053047;28;20040;-61
2021/08/01 05:16:41;;;;;;;29.77;14.20;;;;;;;15.42;89.21;100979.94;5053569;28;20063;-63
2021/08/01 05:19:07;;;;;;;35.33;14.98;;;;;;;15.46;89.37;100968.16;5052916;28;20025;-62
2021/08/01 05:21:32;;;;;;;31.83;15.57;;;;;;;15.45;89.34;100971.78;5053671;28;20464;-61
2021/08/01 05:23:58;;;;;;;29.42;15.50;;;;;;;15.51;89.24;100974.06;5052092;28;20614;-62
2021/08/01 05:26:23;;;;;;;36.78;16.25;;;;;;;15.60;88.70;100969.06;5053514;28;20375;-67
2021/08/01 05:28:48;;;;;;;31.45;15.00;;;;;;;15.65;88.64;100967.84;5053476;28;20052;-66
2021/08/01 05:31:14;;;;;;;32.35;15.13;;;;;;;15.68;88.39;100959.63;5053312;28;20028;-68
2021/08/01 05:33:39;;;;;;;31.80;15.18;;;;;;;15.73;87.98;100962.84;5052307;28;20033;-61
2021/08/01 05:36:06;;;;;;;27.60;15.40;;;;;;;15.76;88.25;100961.78;5053270;28;20028;-61
2021/08/01 05:38:31;;;;;;;28.13;14.50;;;;;;;15.82;87.72;100961.44;5053217;28;20052;-62
2021/08/01 05:40:58;;;;;;;30.45;15.55;;;;;;;15.80;88.18;100965.13;5046699;28;20134;-61
2021/08/01 05:43:26;;;;;;;28.27;15.05;;;;;;;15.78;88.23;100951.88;5048915;28;20490;-62
2021/08/01 05:45:51;;;;;;;29.13;16.02;;;;;;;15.81;88.16;100950.81;5051695;28;20108;-61
2021/08/01 05:48:16;;;;;;;28.23;15.20;;;;;;;15.83;88.40;100963.16;5048286;28;20139;-60
2021/08/01 05:50:41;;;;;;;29.95;14.75;;;;;;;15.86;88.58;100967.44;5053103;28;20477;-61
2021/08/01 05:53:07;;;;;;;31.10;15.02;;;;;;;15.89;88.60;100968.09;5053065;28;20029;-65
2021/08/01 05:55:32;;;;;;;27.85;14.63;;;;;;;15.96;88.64;100965.00;5043013;28;20049;-59
2021/08/01 05:57:57;;;;;;;29.75;15.63;;;;;;;16.01;88.38;100962.88;5053179;28;20458;-59
2021/08/01 06:00:23;;;;;;;28.77;15.43;;;;;;;16.10;87.90;100964.09;5053134;28;20045;-60
2021/08/01 06:02:48;;;;;;;29.02;15.13;;;;;;;16.24;87.80;100968.53;5051159;28;20017;-60
2021/08/01 06:05:13;;;;;;;33.90;17.13;;;;;;;16.45;87.17;100971.59;5052468;28;20040;-61
2021/08/01 06:07:39;;;;;;;29.08;16.73;;;;;;;16.64;85.80;100961.34;5053118;28;20033;-60
2021/08/01 06:10:04;;;;;;;28.55;15.55;;;;;;;16.84;85.02;100969.78;5052093;28;20021;-59
2021/08/01 06:12:30;;;;;;;28.77;16.45;;;;;;;16.90;84.03;100972.06;5034064;28;20429;-61
2021/08/01 06:14:55;;;;;;;32.15;18.42;;;;;;;16.85;85.76;100983.09;5051955;28;20035;-62
2021/08/01 06:17:21;;;;;;;37.90;20.45;;;;;;;16.98;84.60;100969.75;5051902;28;20528;-61
2021/08/01 06:19:46;;;;;;;30.10;19.70;;;;;;;17.07;83.74;100965.53;5052833;28;20039;-60
2021/08/01 06:22:14;;;;;;;32.33;20.75;;;;;;;17.09;83.68;100968.13;5052407;28;20045;-61
2021/08/01 06:24:39;;;;;;;36.85;22.77;;;;;;;17.19;83.71;100963.84;5050971;28;20108;-61
2021/08/01 06:27:05;;;;;;;32.25;20.33;;;;;;;17.34;82.75;100981.50;5051423;28;20108;-60
2021/08/01 06:29:30;;;;;;;35.75;21.55;;;;;;;17.37;82.10;100980.41;5052611;28;20029;-61
2021/08/01 06:31:55;;;;;;;33.35;22.88;;;;;;;17.35;82.25;100979.66;5052303;28;20025;-61
2021/08/01 06:34:23;;;;;;;33.67;23.17;;;;;;;17.40;82.04;100985.53;5051868;28;20056;-62
2021/08/01 06:36:49;;;;;;;32.80;22.50;;;;;;;17.66;81.18;100978.31;5045799;28;20542;-60
2021/08/01 06:39:14;;;;;;;33.85;21.08;;;;;;;17.93;80.34;100989.78;5046671;28;20124;-60
2021/08/01 06:41:39;;;;;;;32.42;20.60;;;;;;;18.09;79.54;100981.50;5051746;28;20104;-61
2021/08/01 06:44:05;;;;;;;30.90;19.98;;;;;;;18.07;79.65;100983.44;5051870;28;20075;-59
2021/08/01 06:46:30;;;;;;;28.75;19.05;;;;;;;17.95;80.07;100990.56;5052151;28;20056;-60
2021/08/01 06:48:55;;;;;;;34.58;20.00;;;;;;;17.72;81.63;100994.91;5051986;28;20111;-61
2021/08/01 06:51:20;;;;;;;35.53;20.48;;;;;;;17.50;83.00;101004.47;5050540;28;20075;-61
2021/08/01 06:53:46;;;;;;;36.22;20.27;;;;;;;17.23;83.58;101000.13;5051916;28;20098;-63
2021/08/01 06:56:11;;;;;;;45.78;20.73;;;;;;;16.88;85.39;100987.38;5038869;28;20491;-61
2021/08/01 06:58:36;;;;;;;36.17;21.20;;;;;;;16.57;87.12;100983.25;5049614;28;20517;-59
2021/08/01 07:01:03;;;;;;;26.90;16.98;;;;;;;16.34;87.70;100988.31;5051351;28;20512;-61
2021/08/01 07:03:28;;;;;;;29.33;18.38;;;;;;;16.15;89.22;100994.91;5051744;28;20025;-62
2021/08/01 07:05:54;;;;;;;30.25;20.08;;;;;;;16.00;89.90;100991.41;5051810;28;20410;-61
2021/08/01 07:08:19;;;;;;;38.75;22.35;;;;;;;15.87;90.96;100991.38;5051320;28;20025;-61
2021/08/01 07:10:44;;;;;;;36.17;20.92;;;;;;;15.84;91.18;100996.03;5051474;28;20052;-61
2021/08/01 07:13:10;;;;;;;34.47;21.13;;;;;;;15.83;91.31;100995.19;5046924;28;20025;-61
2021/08/01 07:15:37;;;;;;;58.60;24.92;;;;;;;15.86;92.11;101000.31;5032083;28;20021;-59
2021/08/01 07:18:04;;;;;;;32.13;18.20;;;;;;;15.85;91.47;101011.13;5044280;28;20056;-61
2021/08/01 07:20:29;;;;;;;35.63;18.67;;;;;;;15.81;91.55;101001.56;5052065;28;20029;-62
2021/08/01 07:22:55;;;;;;;27.02;15.43;;;;;;;15.76;92.00;101009.00;5050588;28;20107;-61
2021/08/01 07:25:24;;;;;;;20.95;13.57;;;;;;;15.77;91.84;101008.91;5051123;28;20451;-61
2021/08/01 07:27:53;;;;;;;19.05;10.57;;;;;;;15.71;91.16;101003.94;5050819;28;20028;-61
2021/08/01 07:30:19;;;;;;;16.60;10.30;;;;;;;15.67;91.71;101003.28;5050468;28;20466;-61
2021/08/01 07:32:44;;;;;;;19.80;11.65;;;;;;;15.68;91.89;100999.66;5031948;28;20048;-59
2021/08/01 07:35:10;;;;;;;14.98;9.63;;;;;;;15.71;91.72;101003.94;5051730;28;20127;-61
2021/08/01 07:37:35;;;;;;;14.38;10.00;;;;;;;15.71;91.30;101014.63;5047412;28;20025;-60
2021/08/01 07:40:01;;;;;;;15.27;10.40;;;;;;;15.66;91.33;101004.22;5051244;28;20033;-61
2021/08/01 07:42:26;;;;;;;16.48;11.10;;;;;;;15.74;91.93;101006.41;5053815;28;20053;-61
2021/08/01 07:44:54;;;;;;;16.52;12.18;;;;;;;15.87;91.89;101006.53;5037277;28;20040;-61
2021/08/01 07:47:21;;;;;;;19.90;12.88;;;;;;;16.09;92.08;100999.78;5054806;28;20035;-61
2021/08/01 07:49:49;;;;;;;14.63;10.48;;;;;;;16.27;89.93;101003.91;5055099;28;20017;-61
2021/08/01 07:52:15;;;;;;;14.35;10.43;;;;;;;16.40;90.09;101013.81;5054695;28;20029;-61
2021/08/01 07:54:40;;;;;;;13.57;9.40;;;;;;;16.47;89.08;101012.41;5047425;28;20104;-62
2021/08/01 07:57:06;;;;;;;12.23;8.35;;;;;;;16.41;88.18;101012.81;5036307;28;20539;-59
2021/08/01 07:59:32;;;;;;;15.07;10.38;;;;;;;16.30;88.68;101021.56;5031824;28;20033;-61
2021/08/01 08:01:57;;;;;;;14.60;9.18;;;;;;;16.22;88.67;101020.25;5031145;28;20450;-61
2021/08/01 08:04:23;;;;;;;19.50;11.13;;;;;;;16.18;89.82;101009.88;5029220;28;20069;-62
2021/08/01 08:06:48;;;;;;;16.95;10.35;;;;;;;16.10;89.79;101009.50;5030219;28;20030;-61
2021/08/01 08:09:14;;;;;;;19.50;11.63;;;;;;;16.04;90.96;101016.97;5030532;28;20022;-59
2021/08/01 08:11:39;;;;;;;15.82;10.80;;;;;;;16.02;90.42;101018.91;5030154;28;20032;-60
2021/08/01 08:14:05;;;;;;;13.18;9.23;;;;;;;16.03;90.31;101030.44;5030228;28;20078;-59
2021/08/01 08:16:30;;;;;;;15.30;10.60;;;;;;;16.04;90.27;101016.13;5030801;28;20455;-60
2021/08/01 08:18:55;;;;;;;15.10;11.27;;;;;;;16.14;90.97;101013.69;5030395;28;20029;-61
2021/08/01 08:21:22;;;;;;;14.73;9.48;;;;;;;16.19;90.54;101020.47;5028860;28;20025;-62
2021/08/01 08:23:48;;;;;;;14.63;10.32;;;;;;;16.28;90.23;101019.00;5026924;28;20033;-61
2021/08/01 08:26:13;;;;;;;13.15;9.88;;;;;;;16.31;90.30;101029.47;5026179;28;20037;-61
2021/08/01 08:28:38;;;;;;;13.02;10.40;;;;;;;16.46;90.66;101026.72;5027727;28;20140;-60
2021/08/01 08:31:04;;;;;;;10.65;7.32;;;;;;;16.62;89.26;101032.75;5030195;28;20063;-60
2021/08/01 08:33:29;;;;;;;10.30;7.95;;;;;;;16.88;88.85;101028.34;5029332;28;20037;-60
2021/08/01 08:35:54;;;;;;;10.32;7.45;;;;;;;17.08;87.70;101041.34;5029768;28;20073;-60
2021/08/01 08:38:20;;;;;;;8.02;6.15;;;;;;;17.06;86.14;101036.09;5030780;28;20065;-60
2021/08/01 08:40:45;;;;;;;7.85;5.05;;;;;;;17.26;85.44;101042.72;5029231;28;20087;-59
2021/08/01 08:43:12;;;;;;;9.18;5.18;;;;;;;17.45;84.23;101036.09;5030054;28;20317;-60
2021/08/01 08:45:42;;;;;;;7.30;5.20;;;;;;;17.59;84.69;101041.31;5030300;28;20426;-60
2021/08/01 08:48:08;;;;;;;6.80;5.20;;;;;;;17.74;84.64;101049.22;5030202;28;20076;-60
2021/08/01 08:50:35;;;;;;;6.80;4.32;;;;;;;18.17;82.42;101032.69;5029563;28;20116;-59
2021/08/01 08:53:05;;;;;;;7.28;4.65;;;;;;;18.31;82.55;101037.91;5028931;28;20033;-60
2021/08/01 08:55:35;;;;;;;8.68;5.40;;;;;;;18.63;79.60;101047.19;5034211;28;20125;-59
2021/08/01 08:58:03;;;;;;;8.13;5.07;;;;;;;19.48;78.57;101044.22;5049334;28;20033;-60
2021/08/01 09:00:29;;;;;;;9.07;4.90;;;;;;;20.08;75.50;101040.41;5049094;28;20056;-60
2021/08/01 09:02:55;;;;;;;7.10;4.90;;;;;;;20.03;75.91;101040.78;5049444;28;20077;-60
2021/08/01 09:05:22;;;;;;;7.57;5.03;;;;;;;19.84;76.71;101035.19;5049251;28;20098;-61
2021/08/01 09:07:47;;;;;;;10.23;5.55;;;;;;;19.61;76.61;101046.75;5029901;28;20398;-58
2021/08/01 09:10:12;;;;;;;7.00;5.63;;;;;;;19.55;79.40;101049.94;5049610;28;20021;-60
2021/08/01 09:12:53;;;;;;;8.73;5.28;;;;;;;20.24;74.74;101051.59;5050921;28;20017;-60
2021/08/01 09:15:24;;;;;;;7.68;4.88;;;;;;;20.88;70.91;101046.34;5042470;28;20021;-59
2021/08/01 09:17:50;;;;;;;6.88;5.18;;;;;;;21.34;66.97;101052.28;5049194;28;20123;-62
2021/08/01 09:20:16;;;;;;;7.35;5.22;;;;;;;;;;5049097;28;20009;-60
2021/08/01 09:22:42;;;;;;;7.13;4.90;;;;;;;22.74;65.22;101045.13;5047773;28;20039;-60
2021/08/01 09:25:20;;;;;;;5.85;4.97;;;;;;;22.99;62.13;101052.75;5047025;28;20037;-59
2021/08/01 09:27:45;;;;;;;7.35;4.63;;;;;;;22.37;65.77;101050.38;5050065;28;20021;-60
2021/08/01 09:30:11;;;;;;;7.53;5.50;;;;;;;21.40;66.90;101051.75;5049660;28;20087;-59
2021/08/01 09:32:49;;;;;;;9.02;5.93;;;;;;;20.35;72.74;101049.88;5047891;28;20138;-59
2021/08/01 09:35:21;;;;;;;10.32;6.07;;;;;;;19.76;75.60;101054.59;5048520;28;20082;-60
2021/08/01 09:37:59;;;;;;;9.75;5.47;;;;;;;19.27;74.13;101053.94;5048400;28;20113;-59
2021/08/01 09:40:31;;;;;;;8.85;5.63;;;;;;;19.13;74.42;101057.72;5048789;28;20032;-60
2021/08/01 09:43:05;;;;;;;7.97;5.45;;;;;;;20.10;72.00;101060.81;5049615;28;20108;-60
2021/08/01 09:45:31;;;;;;;6.68;4.53;;;;;;;21.47;65.08;101068.22;5049474;28;20024;-60
2021/08/01 09:48:21;;;;;;;5.78;4.28;;;;;;;21.92;65.37;101066.03;5048425;28;20343;-60
2021/08/01 09:51:05;;;;;;;5.60;4.40;;;;;;;23.07;58.02;101058.31;5046524;28;20212;-60
2021/08/01 09:53:31;;;;;;;10.30;5.10;;;;;;;23.33;61.33;101053.13;5048300;28;20044;-61
2021/08/01 09:56:12;;;;;;;6.68;4.25;;;;;;;23.76;61.59;101069.75;5047544;28;20029;-61
2021/08/01 09:58:38;;;;;;;6.00;4.00;;;;;;;22.78;58.25;101055.66;5050064;28;20435;-59
2021/08/01 10:01:04;;;;;;;5.70;4.20;;;;;;;21.79;61.46;101064.56;5048721;28;20017;-59
2021/08/01 10:03:38;;;;;;;6.47;4.57;;;;;;;22.37;64.77;101066.56;5047803;28;20029;-60
2021/08/01 10:06:22;;;;;;;7.90;4.30;;;;;;;23.32;59.84;101056.00;5048607;28;20028;-62
2021/08/01 10:08:49;;;;;;;7.90;4.38;;;;;;;23.36;60.90;101062.78;5049891;28;20078;-60
2021/08/01 10:11:20;;;;;;;5.80;4.50;;;;;;;23.43;57.88;101063.06;5031072;28;20044;-60
2021/08/01 10:13:51;;;;;;;7.47;3.85;;;;;;;22.97;57.15;101060.16;5040103;28;20104;-60
2021/08/01 10:16:17;;;;;;;6.15;4.40;;;;;;;22.77;59.72;101060.19;5043290;28;20031;-60
2021/08/01 10:18:44;;;;;;;6.78;4.13;;;;;;;22.43;59.52;101068.72;5048866;28;20230;-59
2021/08/01 10:21:12;;;;;;;6.10;4.47;;;;;;;22.48;61.70;101063.75;5049770;28;20043;-60
2021/08/01 10:23:45;;;;;;;8.27;4.70;;;;;;;22.78;57.59;101058.34;5049143;28;20108;-59
2021/08/01 10:26:12;;;;;;;6.75;4.30;;;;;;;22.92;58.25;101066.84;5048884;28;20500;-60
2021/08/01 10:28:50;;;;;;;7.57;4.70;;;;;;;23.25;59.74;101063.84;5047999;28;20104;-60
2021/08/01 10:31:19;;;;;;;6.53;4.78;;;;;;;23.23;55.88;101063.97;5045315;28;20108;-60
2021/08/01 10:33:57;;;;;;;5.95;3.80;;;;;;;23.31;60.17;101065.09;5047298;28;20074;-60
2021/08/01 10:36:27;;;;;;;5.68;3.70;;;;;;;22.42;57.72;101067.00;5047554;28;20068;-59
2021/08/01 10:38:58;;;;;;;5.63;3.42;;;;;;;21.95;57.94;101081.06;5043432;28;20100;-60
2021/08/01 10:41:27;;;;;;;6.13;3.67;;;;;;;21.86;57.80;101063.03;5046991;28;20025;-60
2021/08/01 10:43:54;;;;;;;5.50;3.67;;;;;;;22.37;58.85;101070.13;5048402;28;20465;-62
2021/08/01 10:46:20;;;;;;;6.70;3.33;;;;;;;22.24;59.23;101077.59;5047486;28;20025;-59
2021/08/01 10:48:46;;;;;;;7.20;3.20;;;;;;;21.95;57.98;101072.16;5048564;28;20532;-60
2021/08/01 10:51:12;;;;;;;4.40;3.20;;;;;;;21.42;58.81;101088.34;5049605;28;20438;-60
2021/08/01 10:53:37;;;;;;;5.85;3.42;;;;;;;21.41;60.28;101080.41;5049378;28;20039;-59
2021/08/01 10:56:06;;;;;;;6.68;3.58;;;;;;;21.87;58.59;101075.53;5049062;28;20049;-60
2021/08/01 10:58:35;;;;;;;6.43;3.17;;;;;;;23.21;54.90;101065.09;5049519;28;20037;-59
2021/08/01 11:01:05;;;;;;;4.63;3.05;;;;;;;24.11;56.44;101076.28;5049206;28;20162;-59
2021/08/01 11:03:35;;;;;;;4.95;2.80;;;;;;;23.59;51.33;101078.66;5048222;28;20057;-59
2021/08/01 11:06:01;;;;;;;4.97;3.08;;;;;;;;;;5049174;28;20392;-60
2021/08/01 11:08:27;;;;;;;6.65;3.22;;;;;;;22.56;55.31;101081.94;5048832;28;20055;-58
2021/08/01 11:11:17;;;;;;;7.32;2.90;;;;;;;23.06;53.34;101084.44;5049305;28;20124;-58
2021/08/01 11:13:46;;;;;;;7.80;3.03;;;;;;;23.52;55.69;101087.34;5047763;28;20045;-60
2021/08/01 11:16:14;;;;;;;6.63;2.70;;;;;;;23.79;51.55;101077.56;5049029;28;20061;-60
2021/08/01 11:18:42;;;;;;;4.97;2.80;;;;;;;23.88;52.72;101081.22;5051633;28;20032;-59